Time;durP1;ratioP1;P1;durP2;ratioP2;P2;SDS_P1;SDS_P2;PMS_P1;PMS_P2;Temp;Humidity;BMP_temperature;BMP_pressure;BME280_temperature;BME280_humidity;BME280_pressure;Samples;Min_cycle;Max_cycle;Signal;HPM_P1;HPM_P2
2021/12/05 00:17:37;;;;;;;25.70;7.70;;;;;;;-0.93;71.86;97862.89;103924;1304;22827;-29
2021/12/05 00:20:00;;;;;;;13.40;6.30;;;;;;;-0.88;71.45;97859.04;104480;1304;22625;-25
2021/12/05 00:22:33;;;;;;;25.90;5.80;;;;;;;-0.82;71.58;97865.05;104588;1310;24215;-26
2021/12/05 00:25:00;;;;;;;9.80;4.30;;;;;;;-0.76;70.74;97866.14;104341;1309;22765;-29
2021/12/05 00:27:32;;;;;;;14.40;6.50;;;;;;;-0.73;70.32;97862.99;104574;1304;24254;-25
2021/12/05 00:33:18;;;;;;;13.80;5.70;;;;;;;-0.69;69.94;97856.98;104343;1310;22605;-28
2021/12/05 00:40:37;;;;;;;21.20;7.80;;;;;;;-0.61;68.60;97870.36;104373;1304;24210;-29
2021/12/05 00:48:06;;;;;;;9.90;3.60;;;;;;;-0.51;67.97;97865.41;104303;1304;23809;-25
2021/12/05 00:53:38;;;;;;;5.10;3.20;;;;;;;-0.33;67.57;97858.20;104292;1306;24226;-28
2021/12/05 00:56:17;;;;;;;8.40;3.10;;;;;;;-0.30;67.24;97856.65;104215;1308;24152;-25
2021/12/05 00:59:12;;;;;;;13.70;4.40;;;;;;;-0.20;67.08;97857.20;104293;1304;22470;-29
2021/12/05 01:02:16;;;;;;;20.20;5.30;;;;;;;-0.15;67.63;97852.36;104249;1309;24177;-26
2021/12/05 01:14:26;;;;;;;8.60;3.70;;;;;;;0.15;66.31;97873.63;104528;1305;24257;-25
2021/12/05 01:16:52;;;;;;;6.20;2.90;;;;;;;0.24;65.84;97872.81;104443;1304;24326;-25
2021/12/05 01:19:21;;;;;;;10.50;3.40;;;;;;;0.30;65.36;97870.15;104397;1310;25356;-26
2021/12/05 01:21:49;;;;;;;6.50;3.30;;;;;;;0.38;65.67;97871.95;104449;1304;23709;-29
2021/12/05 01:31:52;;;;;;;6.10;3.00;;;;;;;0.61;64.61;97880.44;104687;1302;22694;-28
2021/12/05 01:34:33;;;;;;;7.00;2.80;;;;;;;0.68;64.40;97886.88;104449;1308;24167;-29
2021/12/05 01:39:47;;;;;;;;;;;;;;;0.79;64.67;97881.15;104720;1307;22830;-29
2021/12/05 01:45:07;;;;;;;5.80;3.00;;;;;;;0.85;64.56;97871.33;104727;1304;22474;-25
2021/12/05 02:09:58;;;;;;;8.30;4.40;;;;;;;1.03;70.10;97852.73;104658;1304;24289;-25
2021/12/05 02:32:48;;;;;;;10.70;4.90;;;;;;;0.64;75.73;97862.67;104904;1304;22473;-29
2021/12/05 02:35:24;;;;;;;6.70;4.20;;;;;;;0.44;76.95;97864.38;104547;1308;23757;-27
2021/12/05 02:38:11;;;;;;;6.20;4.60;;;;;;;0.48;77.91;97864.29;104809;1304;24170;-29
2021/12/05 02:43:09;;;;;;;8.70;4.40;;;;;;;0.34;79.44;97865.20;104893;1304;24345;-26
2021/12/05 02:45:38;;;;;;;12.30;5.40;;;;;;;0.36;79.72;97869.73;104988;1310;24956;-25
2021/12/05 02:48:06;;;;;;;19.10;7.00;;;;;;;0.10;80.85;97872.55;104523;1310;22472;-30
2021/12/05 02:50:32;;;;;;;7.60;4.80;;;;;;;-0.01;81.84;97869.66;104677;1307;22486;-25
2021/12/05 02:53:05;;;;;;;11.20;4.30;;;;;;;-0.03;82.59;97867.78;104493;1310;24221;-25
2021/12/05 02:58:03;;;;;;;8.40;4.40;;;;;;;-0.11;83.57;97868.15;104699;1304;24306;-29
2021/12/05 03:03:06;;;;;;;10.20;5.10;;;;;;;-0.27;84.89;97866.67;104631;1304;22476;-29
2021/12/05 03:05:32;;;;;;;10.20;4.50;;;;;;;-0.31;85.16;97865.19;104820;1308;23886;-24
2021/12/05 03:08:01;;;;;;;13.00;5.20;;;;;;;-0.29;85.24;97868.88;104150;1310;25270;-28
2021/12/05 03:10:27;;;;;;;8.60;5.60;;;;;;;-0.31;85.43;97864.10;104588;1310;22697;-29
2021/12/05 03:12:53;;;;;;;9.90;6.20;;;;;;;-0.37;85.66;97863.61;104534;1304;22481;-25
2021/12/05 03:15:19;;;;;;;10.80;6.00;;;;;;;-0.40;86.47;97865.20;104410;1304;24367;-24
2021/12/05 03:17:45;;;;;;;11.60;5.90;;;;;;;-0.43;86.65;97871.22;104563;1301;22688;-26
2021/12/05 03:20:12;;;;;;;10.30;5.90;;;;;;;-0.49;86.63;97875.02;104168;1310;24220;-25
2021/12/05 03:22:38;;;;;;;11.40;5.20;;;;;;;-0.53;87.48;97873.37;104296;1310;22480;-28
2021/12/05 03:25:06;;;;;;;9.40;5.70;;;;;;;-0.56;88.14;97869.34;104226;1310;24224;-29
2021/12/05 03:27:34;;;;;;;11.70;5.60;;;;;;;-0.55;88.28;97870.30;104197;1305;22470;-28
2021/12/05 03:30:01;;;;;;;15.70;6.30;;;;;;;-0.54;88.87;97871.67;104472;1310;23079;-29
2021/12/05 03:32:27;;;;;;;11.60;5.20;;;;;;;-0.53;88.85;97871.81;103981;1310;24171;-29
2021/12/05 03:34:53;;;;;;;13.70;6.30;;;;;;;-0.56;89.22;97871.02;104251;1304;24153;-25
2021/12/05 03:37:19;;;;;;;10.00;5.60;;;;;;;-0.62;90.65;97868.67;104153;1305;24349;-29
2021/12/05 03:39:47;;;;;;;11.90;4.10;;;;;;;-0.63;91.61;97873.26;104210;1310;24302;-24
2021/12/05 03:42:13;;;;;;;9.80;6.30;;;;;;;-0.60;90.44;97874.11;104179;1309;24267;-28
2021/12/05 03:44:39;;;;;;;12.50;6.50;;;;;;;-0.61;90.65;97874.91;104259;1303;24272;-28
2021/12/05 03:47:07;;;;;;;7.20;4.50;;;;;;;-0.59;90.56;97873.35;104249;1310;24152;-24
2021/12/05 03:49:33;;;;;;;13.00;5.30;;;;;;;-0.61;90.53;97874.21;104182;1310;24365;-28
2021/12/05 03:52:03;;;;;;;9.50;5.50;;;;;;;-0.58;89.98;97875.11;104357;1307;24172;-29
2021/12/05 03:54:29;;;;;;;11.20;5.70;;;;;;;-0.57;89.16;97874.45;103991;1308;22688;-27
2021/12/05 03:56:55;;;;;;;7.40;5.60;;;;;;;-0.56;89.27;97875.96;104257;1310;22547;-27
2021/12/05 03:59:22;;;;;;;20.30;5.80;;;;;;;-0.59;89.23;97872.73;104226;1310;24150;-24
2021/12/05 04:01:48;;;;;;;8.00;4.80;;;;;;;-0.57;89.35;97872.33;104220;1304;24565;-28
2021/12/05 04:04:14;;;;;;;8.20;4.80;;;;;;;-0.52;88.68;97873.04;104290;1310;22697;-29
2021/12/05 04:06:41;;;;;;;10.70;5.90;;;;;;;-0.52;89.02;97874.42;104141;1310;22498;-25
2021/12/05 04:09:09;;;;;;;12.80;7.30;;;;;;;-0.50;88.88;97873.73;104269;1310;24224;-25
2021/12/05 04:11:39;;;;;;;10.40;6.80;;;;;;;-0.51;89.78;97871.77;104367;1310;22464;-29
2021/12/05 04:14:07;;;;;;;11.60;8.00;;;;;;;-0.51;89.59;97877.16;104252;1304;22595;-25
2021/12/05 04:16:34;;;;;;;13.20;7.00;;;;;;;-0.52;89.49;97877.61;104246;1310;24196;-25
2021/12/05 04:19:01;;;;;;;12.60;8.30;;;;;;;-0.52;89.64;97879.36;104239;1309;24162;-29
2021/12/05 04:21:29;;;;;;;14.70;8.40;;;;;;;-0.54;89.52;97881.77;104208;1309;22470;-29
2021/12/05 04:23:56;;;;;;;13.40;7.30;;;;;;;-0.55;89.52;97884.16;104340;1304;25371;-29
2021/12/05 04:26:24;;;;;;;14.80;8.10;;;;;;;-0.53;89.92;97889.32;104183;1304;24415;-28
2021/12/05 04:28:50;;;;;;;14.10;8.80;;;;;;;-0.51;90.43;97892.13;103960;1307;22697;-24
2021/12/05 04:31:20;;;;;;;15.70;9.20;;;;;;;-0.44;89.59;97892.29;104246;1304;24271;-25
2021/12/05 04:33:46;;;;;;;19.70;8.80;;;;;;;-0.42;90.08;97893.71;104318;1304;22595;-28
2021/12/05 04:36:12;;;;;;;14.50;8.70;;;;;;;-0.41;90.45;97895.63;104363;1304;24279;-25
2021/12/05 04:38:38;;;;;;;27.90;12.80;;;;;;;-0.37;89.98;97903.08;104337;1310;22591;-25
2021/12/05 04:41:04;;;;;;;36.20;15.00;;;;;;;-0.34;90.65;97904.70;104375;1309;24395;-29
2021/12/05 04:43:36;;;;;;;25.30;11.60;;;;;;;-0.33;90.25;97908.48;104296;1304;24237;-25
2021/12/05 04:46:04;;;;;;;21.40;11.40;;;;;;;-0.35;89.71;97905.52;104355;1304;24244;-24
2021/12/05 04:48:31;;;;;;;12.30;8.20;;;;;;;-0.34;89.90;97904.37;104270;1307;22473;-25
2021/12/05 04:50:57;;;;;;;15.70;8.80;;;;;;;-0.35;90.17;97906.05;104036;1308;24272;-25
2021/12/05 04:53:26;;;;;;;20.60;10.90;;;;;;;-0.32;89.90;97905.76;104286;1309;24286;-25
2021/12/05 04:55:52;;;;;;;24.60;12.00;;;;;;;-0.30;90.27;97909.61;104314;1309;22583;-24
2021/12/05 04:58:18;;;;;;;30.50;13.80;;;;;;;-0.29;90.52;97906.67;104258;1308;24232;-29
2021/12/05 05:00:44;;;;;;;20.80;11.60;;;;;;;-0.27;90.50;97903.97;104188;1310;24172;-29
2021/12/05 05:03:11;;;;;;;23.80;13.60;;;;;;;-0.25;90.15;97906.91;104303;1304;23819;-24
2021/12/05 05:05:43;;;;;;;27.20;12.70;;;;;;;-0.26;90.08;97911.95;104298;1304;24185;-30
2021/12/05 05:08:09;;;;;;;18.30;11.70;;;;;;;-0.28;90.79;97919.79;104282;1305;24171;-23
2021/12/05 05:10:36;;;;;;;23.00;12.30;;;;;;;-0.31;90.53;97919.17;104019;1309;24177;-25
2021/12/05 05:13:02;;;;;;;20.30;11.00;;;;;;;-0.31;90.54;97920.45;104450;1304;22744;-29
2021/12/05 05:15:30;;;;;;;20.10;9.20;;;;;;;-0.32;90.23;97920.70;104252;1303;24180;-25
2021/12/05 05:17:57;;;;;;;16.90;9.10;;;;;;;-0.29;89.97;97924.22;104160;1309;24271;-30
2021/12/05 05:40:34;;;;;;;16.50;8.30;;;;;;;-0.14;90.93;97948.30;104910;1304;22444;-29
2021/12/05 05:50:25;;;;;;;10.70;7.10;;;;;;;-0.10;91.27;97954.73;104597;1307;22644;-26
2021/12/05 05:52:52;;;;;;;12.80;6.60;;;;;;;-0.08;91.00;97955.56;104791;1304;22763;-26
2021/12/05 05:55:19;;;;;;;26.30;10.20;;;;;;;-0.07;90.61;97959.55;104666;1310;22574;-26
2021/12/05 05:58:08;;;;;;;25.90;9.60;;;;;;;-0.09;90.57;97961.16;104713;1310;23826;-29
2021/12/05 06:00:35;;;;;;;44.50;10.40;;;;;;;-0.15;90.77;97961.96;104294;1304;24220;-26
2021/12/05 06:05:33;;;;;;;13.30;6.90;;;;;;;-0.14;91.39;97964.53;104199;1308;23875;-31
2021/12/05 06:07:59;;;;;;;7.30;4.70;;;;;;;-0.11;90.70;97962.41;104772;1304;24170;-31
2021/12/05 06:10:28;;;;;;;7.00;4.40;;;;;;;-0.09;90.46;97966.02;104929;1303;24177;-30
2021/12/05 06:12:54;;;;;;;12.40;7.10;;;;;;;-0.08;90.26;97969.81;104425;1310;22437;-30
2021/12/05 06:15:21;;;;;;;11.60;6.80;;;;;;;-0.09;90.34;97972.81;104791;1304;24430;-30
2021/12/05 06:17:47;;;;;;;11.20;5.20;;;;;;;-0.12;90.59;97976.05;104500;1304;22548;-29
2021/12/05 06:20:16;;;;;;;14.30;7.00;;;;;;;-0.14;91.53;97980.89;104515;1304;22477;-26
2021/12/05 06:22:44;;;;;;;18.70;7.50;;;;;;;-0.14;91.06;97977.06;104241;1304;24346;-30
2021/12/05 06:25:14;;;;;;;14.90;6.00;;;;;;;-0.14;91.06;97974.85;104480;1306;24141;-29
2021/12/05 06:27:42;;;;;;;7.90;4.80;;;;;;;-0.13;90.49;97977.80;104387;1304;24032;-30
2021/12/05 06:30:14;;;;;;;11.70;6.50;;;;;;;-0.14;90.44;97981.26;104359;1304;24276;-25
2021/12/05 06:37:48;;;;;;;14.10;7.50;;;;;;;-0.09;90.89;97990.73;104185;1308;25328;-29
2021/12/05 06:47:40;;;;;;;10.70;5.80;;;;;;;-0.03;91.24;98011.34;104504;1304;24029;-27
2021/12/05 06:50:06;;;;;;;14.40;7.80;;;;;;;-0.01;90.65;98017.12;104574;1304;24274;-26
2021/12/05 06:52:33;;;;;;;17.50;7.60;;;;;;;0.03;90.82;98017.13;104593;1304;24192;-25
2021/12/05 06:54:59;;;;;;;13.80;7.40;;;;;;;0.07;90.96;98016.91;104656;1304;22756;-29
2021/12/05 06:57:25;;;;;;;16.40;7.80;;;;;;;0.08;91.02;98013.91;104370;1305;22463;-25
2021/12/05 06:59:51;;;;;;;15.70;9.00;;;;;;;0.08;91.14;98015.69;104452;1304;24295;-25
2021/12/05 07:02:18;;;;;;;16.50;7.50;;;;;;;0.11;91.01;98025.71;104603;1304;22538;-29
2021/12/05 07:07:37;;;;;;;22.80;10.00;;;;;;;0.14;91.08;98027.04;104326;1304;22906;-29
2021/12/05 07:10:05;;;;;;;18.20;7.30;;;;;;;0.16;91.10;98027.83;104713;1304;22770;-25
2021/12/05 07:15:07;;;;;;;23.00;9.70;;;;;;;0.22;91.01;98029.29;104662;1304;22584;-25
2021/12/05 07:22:45;;;;;;;25.20;9.60;;;;;;;0.27;91.14;98033.19;104659;1304;22444;-25
2021/12/05 07:25:24;;;;;;;16.00;8.80;;;;;;;0.29;90.97;98032.44;104732;1309;24272;-29
2021/12/05 07:42:48;;;;;;;20.00;10.90;;;;;;;0.39;90.76;98034.17;104806;1304;24153;-27
2021/12/05 07:45:19;;;;;;;24.10;10.20;;;;;;;0.39;90.82;98032.91;104637;1302;24295;-31
2021/12/05 07:47:50;;;;;;;20.70;10.80;;;;;;;0.42;91.08;98029.42;104314;1307;22486;-31
2021/12/05 07:50:16;;;;;;;22.80;11.50;;;;;;;0.45;91.03;98035.04;104553;1304;24283;-30
2021/12/05 07:52:47;;;;;;;26.80;12.00;;;;;;;0.50;90.89;98033.80;104540;1307;22733;-28
2021/12/05 07:58:03;;;;;;;29.40;14.00;;;;;;;0.60;90.45;98034.32;104518;1310;24162;-28
2021/12/05 08:00:38;;;;;;;40.50;17.30;;;;;;;0.64;90.59;98035.71;104469;1304;22473;-28
2021/12/05 08:15:40;;;;;;;23.50;11.50;;;;;;;0.58;90.13;98054.84;104662;1302;24177;-29
2021/12/05 08:18:09;;;;;;;16.80;9.80;;;;;;;0.57;90.47;98060.58;104762;1304;22714;-25
2021/12/05 08:20:37;;;;;;;21.00;10.40;;;;;;;0.61;90.61;98058.93;104654;1305;22561;-29
2021/12/05 08:23:04;;;;;;;17.00;9.10;;;;;;;0.59;90.72;98063.19;104303;1307;24164;-29
2021/12/05 08:25:31;;;;;;;19.60;12.30;;;;;;;0.53;90.80;98061.94;104879;1302;24308;-29
2021/12/05 08:28:13;;;;;;;35.20;14.20;;;;;;;0.47;91.08;98062.39;104913;1304;22684;-29
2021/12/05 08:30:41;;;;;;;19.70;11.50;;;;;;;0.48;91.45;98064.38;104744;1304;24292;-26
2021/12/05 08:33:19;;;;;;;27.80;13.80;;;;;;;0.52;91.45;98065.31;104958;1304;22502;-30
2021/12/05 08:36:15;;;;;;;26.50;12.60;;;;;;;0.62;91.68;98068.02;104515;1304;24305;-29
2021/12/05 09:21:32;;;;;;;35.40;17.60;;;;;;;1.38;91.11;98091.53;104793;1304;24323;-24
2021/12/05 09:26:28;;;;;;;33.10;14.00;;;;;;;1.49;91.94;98093.11;104789;1304;24222;-24
2021/12/05 09:52:15;;;;;;;32.90;15.40;;;;;;;2.59;94.42;98085.13;104643;1304;22471;-28
2021/12/05 10:02:22;;;;;;;38.20;17.20;;;;;;;2.36;94.12;98083.32;104102;1304;24181;-24
2021/12/05 10:09:59;;;;;;;38.30;18.40;;;;;;;2.64;94.05;98083.66;104292;1305;22480;-29
2021/12/05 10:15:15;;;;;;;24.10;14.00;;;;;;;2.64;93.40;98087.98;104237;1304;24262;-25
2021/12/05 10:18:07;;;;;;;33.30;16.70;;;;;;;2.59;93.60;98088.91;104512;1304;23893;-29
2021/12/05 10:38:18;;;;;;;30.90;16.10;;;;;;;2.34;94.55;98104.20;104674;1301;24311;-24
2021/12/05 10:40:56;;;;;;;33.60;15.80;;;;;;;2.39;94.85;98101.28;104480;1303;22826;-28
2021/12/05 10:43:23;;;;;;;27.70;14.40;;;;;;;2.32;94.20;98102.75;104604;1304;22496;-28
2021/12/05 10:45:51;;;;;;;25.40;15.60;;;;;;;2.26;95.02;98100.95;104191;1307;22476;-24
2021/12/05 10:48:22;;;;;;;27.60;14.70;;;;;;;2.26;95.70;98101.41;104387;1308;24259;-28
2021/12/05 10:50:51;;;;;;;27.60;14.90;;;;;;;2.22;95.31;98105.56;104750;1304;22454;-24
2021/12/05 10:53:25;;;;;;;35.70;16.60;;;;;;;2.21;96.05;98111.83;104882;1304;24179;-24
2021/12/05 10:55:56;;;;;;;29.60;15.70;;;;;;;2.15;96.09;98115.51;104715;1310;22573;-28
2021/12/05 10:58:28;;;;;;;33.30;16.60;;;;;;;2.01;96.47;98117.40;104609;1304;24390;-29
2021/12/05 11:01:01;;;;;;;26.50;15.30;;;;;;;2.01;96.83;98117.21;104456;1304;22817;-25
2021/12/05 11:03:29;;;;;;;33.00;17.10;;;;;;;2.01;96.74;98114.23;104633;1304;22434;-29
2021/12/05 11:05:55;;;;;;;34.40;16.70;;;;;;;2.15;96.07;98112.32;104527;1307;25912;-25
2021/12/05 11:08:31;;;;;;;42.90;17.40;;;;;;;1.89;94.77;98111.24;104611;1302;24243;-25
2021/12/05 11:11:04;;;;;;;31.00;16.10;;;;;;;1.77;95.80;98112.95;104200;1304;22438;-25
2021/12/05 11:13:30;;;;;;;27.60;14.10;;;;;;;1.79;96.39;98116.55;104716;1304;25969;-24
2021/12/05 11:15:56;;;;;;;33.60;18.00;;;;;;;1.82;96.55;98122.08;104696;1301;24163;-28
2021/12/05 11:18:29;;;;;;;31.90;17.10;;;;;;;1.79;96.25;98127.35;104422;1307;22477;-28
2021/12/05 11:20:55;;;;;;;31.30;14.50;;;;;;;1.81;96.71;98133.05;104851;1304;22598;-29
2021/12/05 11:23:22;;;;;;;34.90;16.70;;;;;;;1.84;96.66;98133.34;104413;1304;24288;-25
2021/12/05 11:25:48;;;;;;;34.30;17.50;;;;;;;1.75;96.22;98131.25;104247;1308;24285;-25
2021/12/05 11:28:17;;;;;;;29.50;15.20;;;;;;;1.67;96.13;98128.88;104595;1305;22469;-29
2021/12/05 11:30:44;;;;;;;24.00;15.60;;;;;;;1.66;95.69;98128.08;104716;1304;24332;-28
2021/12/05 11:33:17;;;;;;;27.10;16.90;;;;;;;1.71;94.52;98129.48;104565;1304;24136;-24
2021/12/05 11:35:50;;;;;;;18.70;8.90;;;;;;;1.74;93.95;98133.03;104711;1304;22599;-31
2021/12/05 11:38:19;;;;;;;27.80;11.50;;;;;;;1.96;91.10;98138.98;104888;1304;22714;-26
2021/12/05 11:40:47;;;;;;;23.60;12.70;;;;;;;1.90;90.64;98143.97;104717;1297;22475;-31
2021/12/05 11:43:16;;;;;;;18.90;9.70;;;;;;;1.79;90.44;98143.24;104703;1304;22695;-31
2021/12/05 11:45:49;;;;;;;18.70;10.70;;;;;;;1.68;90.64;98140.94;104602;1304;23824;-28
2021/12/05 11:48:17;;;;;;;29.50;13.20;;;;;;;1.33;92.39;98150.46;104781;1304;25814;-28
2021/12/05 11:50:43;;;;;;;12.50;7.30;;;;;;;1.46;93.19;98149.04;104625;1304;22687;-24
2021/12/05 11:53:09;;;;;;;17.50;10.60;;;;;;;1.75;91.35;98150.61;104730;1304;24242;-28
2021/12/05 11:55:35;;;;;;;29.80;12.90;;;;;;;1.53;92.72;98152.64;104701;1304;22766;-27
2021/12/05 11:58:02;;;;;;;18.90;11.20;;;;;;;1.43;93.04;98154.64;104750;1304;22476;-28
2021/12/05 12:00:30;;;;;;;21.00;12.40;;;;;;;1.38;93.59;98157.27;104695;1304;22475;-28
2021/12/05 12:02:57;;;;;;;19.90;8.20;;;;;;;1.47;94.06;98164.02;104448;1304;24231;-29
2021/12/05 12:05:26;;;;;;;22.00;11.00;;;;;;;1.28;94.24;98176.19;104637;1304;24971;-29
2021/12/05 12:08:02;;;;;;;22.00;12.90;;;;;;;1.27;95.23;98175.27;104745;1304;22444;-29
2021/12/05 12:10:33;;;;;;;27.80;14.50;;;;;;;1.44;95.18;98172.20;104813;1304;22587;-29
2021/12/05 12:13:03;;;;;;;23.10;13.80;;;;;;;1.37;95.27;98172.35;104636;1304;24320;-29
2021/12/05 12:15:30;;;;;;;22.80;13.00;;;;;;;1.54;94.80;98166.05;104612;1304;22452;-29
2021/12/05 12:18:06;;;;;;;13.20;7.50;;;;;;;1.73;94.23;98168.39;104629;1304;24515;-30
2021/12/05 12:20:33;;;;;;;14.10;8.70;;;;;;;1.79;92.62;98170.61;104402;1297;24144;-29
2021/12/05 12:23:00;;;;;;;22.50;11.70;;;;;;;1.86;91.62;98170.62;104829;1304;25004;-29
2021/12/05 12:25:30;;;;;;;17.50;10.00;;;;;;;1.96;90.98;98171.27;104890;1304;22517;-29
2021/12/05 12:27:56;;;;;;;11.40;7.40;;;;;;;1.61;91.91;98171.89;104773;1304;22473;-24
2021/12/05 12:30:25;;;;;;;18.40;11.20;;;;;;;1.55;92.36;98173.73;104591;1304;24219;-29
2021/12/05 12:32:54;;;;;;;25.60;12.50;;;;;;;1.56;92.33;98173.96;104559;1304;22672;-30
2021/12/05 12:35:25;;;;;;;18.90;11.50;;;;;;;1.48;92.79;98176.48;104841;1304;26053;-29
2021/12/05 12:37:58;;;;;;;19.70;12.30;;;;;;;1.16;94.74;98178.09;104662;1304;24314;-29
2021/12/05 12:40:31;;;;;;;18.70;9.60;;;;;;;1.07;95.72;98174.23;104603;1304;22477;-24
2021/12/05 12:42:56;;;;;;;22.30;12.20;;;;;;;1.07;96.44;98170.23;104852;1304;22502;-25
2021/12/05 12:45:23;;;;;;;28.10;15.40;;;;;;;1.14;96.63;98168.09;104777;1302;22450;-29
2021/12/05 12:47:54;;;;;;;19.70;11.50;;;;;;;1.07;97.13;98170.89;104755;1304;22563;-27
2021/12/05 12:50:23;;;;;;;26.90;14.50;;;;;;;1.24;96.89;98176.96;104645;1304;22583;-25
2021/12/05 12:52:56;;;;;;;33.90;16.30;;;;;;;1.21;97.13;98176.61;104650;1304;22699;-24
2021/12/05 12:55:27;;;;;;;27.10;14.70;;;;;;;1.45;96.60;98172.77;104746;1307;23735;-26
2021/12/05 12:57:53;;;;;;;20.30;13.20;;;;;;;1.48;96.16;98172.19;104640;1304;22438;-25
2021/12/05 13:00:21;;;;;;;21.30;12.50;;;;;;;1.48;95.80;98171.11;104716;1304;22657;-28
2021/12/05 13:05:41;;;;;;;20.50;11.60;;;;;;;1.21;95.71;98171.31;105062;1304;22438;-26
2021/12/05 13:10:42;;;;;;;30.70;14.90;;;;;;;1.22;97.63;98169.27;104884;1304;23153;-29
2021/12/05 13:13:19;;;;;;;31.10;17.00;;;;;;;1.18;98.16;98170.89;104867;1304;22505;-29
2021/12/05 13:15:50;;;;;;;31.70;16.10;;;;;;;1.23;98.61;98176.11;104939;1304;24388;-29
2021/12/05 13:18:23;;;;;;;29.40;16.40;;;;;;;1.22;98.78;98176.67;104874;1304;22664;-24
2021/12/05 13:20:56;;;;;;;26.30;14.40;;;;;;;1.25;99.24;98173.39;104898;1307;22451;-25
2021/12/05 13:23:27;;;;;;;24.50;13.70;;;;;;;1.37;99.59;98173.10;104638;1304;25386;-24
2021/12/05 13:25:57;;;;;;;23.30;14.80;;;;;;;1.30;99.51;98177.71;104820;1308;22684;-26
2021/12/05 13:28:26;;;;;;;31.50;19.10;;;;;;;1.21;99.89;98175.41;104368;1307;22577;-25
2021/12/05 13:30:53;;;;;;;30.80;17.50;;;;;;;1.24;99.96;98177.00;104612;1304;24230;-29
2021/12/05 13:33:21;;;;;;;33.90;18.60;;;;;;;1.29;100.00;98178.70;104983;1304;24102;-24
2021/12/05 13:35:48;;;;;;;35.60;17.50;;;;;;;1.37;100.00;98181.14;104613;1304;24238;-24
2021/12/05 13:38:21;;;;;;;34.70;18.50;;;;;;;1.55;100.00;98183.48;105011;1304;22455;-28
2021/12/05 13:40:47;;;;;;;38.70;18.60;;;;;;;1.50;100.00;98186.50;104589;1304;26338;-25
2021/12/05 13:43:14;;;;;;;35.00;19.20;;;;;;;1.42;100.00;98186.88;104713;1304;22473;-26
2021/12/05 13:45:43;;;;;;;41.20;19.00;;;;;;;1.46;100.00;98186.61;104790;1304;22476;-29
2021/12/05 13:48:15;;;;;;;40.40;18.80;;;;;;;1.59;100.00;98190.55;104743;1305;24205;-26
2021/12/05 13:50:45;;;;;;;33.00;18.30;;;;;;;1.59;100.00;98193.11;104477;1299;22602;-26
2021/12/05 13:53:16;;;;;;;31.10;16.60;;;;;;;1.59;100.00;98193.23;104802;1304;24156;-30
2021/12/05 13:55:46;;;;;;;38.80;18.60;;;;;;;1.62;100.00;98186.73;104914;1304;24151;-24
2021/12/05 13:58:17;;;;;;;37.30;17.90;;;;;;;1.66;100.00;98183.79;105052;1304;22486;-25
2021/12/05 14:00:49;;;;;;;38.30;19.00;;;;;;;1.70;100.00;98182.66;104831;1308;22464;-25
2021/12/05 14:03:38;;;;;;;46.70;20.60;;;;;;;1.79;100.00;98182.70;104636;1304;24177;-30
2021/12/05 14:06:22;;;;;;;39.70;18.30;;;;;;;1.80;100.00;98185.44;104891;1304;22696;-30
2021/12/05 14:08:49;;;;;;;37.30;17.60;;;;;;;1.75;100.00;98187.58;104873;1304;22459;-29
2021/12/05 14:11:16;;;;;;;33.10;16.60;;;;;;;1.77;100.00;98187.92;104601;1304;22569;-24
2021/12/05 14:13:42;;;;;;;36.80;20.80;;;;;;;1.78;100.00;98193.95;104852;1304;22593;-24
2021/12/05 14:16:08;;;;;;;43.00;20.50;;;;;;;1.85;100.00;98200.05;104784;1303;24880;-29
2021/12/05 14:18:34;;;;;;;41.50;19.10;;;;;;;1.86;100.00;98198.96;105036;1304;22906;-24
2021/12/05 14:21:08;;;;;;;44.30;23.10;;;;;;;1.90;100.00;98197.59;104947;1304;22702;-24
2021/12/05 14:23:34;;;;;;;40.90;18.40;;;;;;;1.93;100.00;98197.94;104988;1304;25906;-25
2021/12/05 14:26:12;;;;;;;46.10;20.60;;;;;;;1.94;100.00;98202.80;104601;1304;25381;-29
2021/12/05 14:28:38;;;;;;;41.30;19.30;;;;;;;1.86;100.00;98205.96;104607;1304;22486;-24
2021/12/05 14:31:04;;;;;;;33.70;16.70;;;;;;;1.82;100.00;98210.82;104647;1304;23860;-28
2021/12/05 14:33:46;;;;;;;36.70;17.70;;;;;;;1.80;100.00;98214.89;104649;1304;22807;-24
2021/12/05 14:36:19;;;;;;;28.30;16.30;;;;;;;1.78;100.00;98217.47;104869;1304;22751;-28
2021/12/05 14:38:46;;;;;;;37.80;16.70;;;;;;;1.69;100.00;98223.42;104995;1304;22590;-27
2021/12/05 14:41:12;;;;;;;32.00;16.30;;;;;;;1.76;100.00;98224.06;104734;1310;23223;-31
2021/12/05 14:43:38;;;;;;;28.80;18.30;;;;;;;1.70;100.00;98231.56;104460;1304;23362;-25
2021/12/05 14:46:04;;;;;;;35.10;17.30;;;;;;;1.73;100.00;98230.52;104563;1308;24242;-29
2021/12/05 14:48:30;;;;;;;34.60;16.70;;;;;;;1.59;100.00;98232.96;104775;1304;24143;-29
2021/12/05 14:50:58;;;;;;;34.10;15.60;;;;;;;1.57;100.00;98237.33;104820;1309;22541;-24
2021/12/05 14:53:24;;;;;;;31.60;16.80;;;;;;;1.67;100.00;98235.92;104761;1304;22770;-24
2021/12/05 14:55:56;;;;;;;31.70;17.00;;;;;;;1.69;100.00;98241.82;104654;1304;22629;-24
2021/12/05 14:58:23;;;;;;;29.80;16.80;;;;;;;1.74;100.00;98243.64;104743;1304;23731;-24
2021/12/05 15:00:51;;;;;;;27.70;15.50;;;;;;;1.68;100.00;98244.00;104736;1304;24174;-24
2021/12/05 15:03:19;;;;;;;33.50;16.50;;;;;;;1.68;100.00;98247.64;104582;1304;22474;-24
2021/12/05 15:05:47;;;;;;;34.60;18.10;;;;;;;1.70;100.00;98253.30;104164;1309;24272;-25
2021/12/05 15:08:15;;;;;;;33.80;17.00;;;;;;;1.75;100.00;98260.85;104226;1304;22452;-29
2021/12/05 15:10:42;;;;;;;30.90;16.50;;;;;;;1.77;100.00;98263.93;104536;1302;22444;-28
2021/12/05 15:13:09;;;;;;;32.40;16.20;;;;;;;1.79;100.00;98266.98;104904;1310;22575;-25
2021/12/05 15:15:35;;;;;;;35.70;16.90;;;;;;;1.77;100.00;98267.48;104650;1304;24208;-24
2021/12/05 15:18:01;;;;;;;27.20;15.50;;;;;;;1.77;100.00;98269.42;104534;1304;23913;-28
2021/12/05 15:20:30;;;;;;;38.60;20.00;;;;;;;1.71;100.00;98267.94;104673;1304;24312;-24
2021/12/05 15:23:00;;;;;;;32.70;15.50;;;;;;;1.79;100.00;98266.44;104983;1303;22579;-24
2021/12/05 15:25:28;;;;;;;34.20;15.20;;;;;;;1.63;100.00;98262.98;104810;1304;22438;-25
2021/12/05 15:27:55;;;;;;;36.50;17.10;;;;;;;1.76;100.00;98258.40;104906;1304;22508;-29
2021/12/05 15:30:22;;;;;;;34.00;17.00;;;;;;;1.72;100.00;98255.50;104694;1309;24285;-26
2021/12/05 15:32:52;;;;;;;39.10;16.80;;;;;;;1.49;100.00;98256.92;104418;1308;22467;-25
2021/12/05 15:35:18;;;;;;;29.90;16.30;;;;;;;1.42;100.00;98255.05;104487;1308;22693;-25
2021/12/05 15:37:49;;;;;;;21.80;7.70;;;;;;;1.42;100.00;98258.09;104629;1304;22514;-24
2021/12/05 15:40:16;;;;;;;29.90;13.30;;;;;;;1.39;100.00;98258.63;104764;1305;24138;-25
2021/12/05 15:42:41;;;;;;;25.40;12.80;;;;;;;1.40;100.00;98259.34;104979;1304;24281;-25
2021/12/05 15:45:10;;;;;;;35.00;15.50;;;;;;;1.41;100.00;98261.92;105042;1302;22732;-29
2021/12/05 15:47:39;;;;;;;32.20;13.00;;;;;;;1.43;100.00;98266.21;105016;1304;22723;-29
2021/12/05 15:50:10;;;;;;;25.50;13.90;;;;;;;1.41;100.00;98263.41;105001;1304;23095;-24
2021/12/05 15:52:40;;;;;;;25.30;9.20;;;;;;;1.47;100.00;98259.27;104559;1308;24395;-24
2021/12/05 15:55:11;;;;;;;19.00;10.20;;;;;;;1.48;100.00;98261.52;104868;1309;22481;-26
2021/12/05 15:57:38;;;;;;;24.50;10.60;;;;;;;1.45;100.00;98267.08;105069;1310;22527;-24
2021/12/05 16:00:10;;;;;;;24.60;11.20;;;;;;;1.30;100.00;98265.92;104463;1304;22483;-26
2021/12/05 16:02:35;;;;;;;25.90;12.00;;;;;;;1.30;100.00;98265.20;104673;1305;23992;-29
2021/12/05 16:05:02;;;;;;;20.00;10.70;;;;;;;1.37;100.00;98263.77;104685;1304;22601;-29
2021/12/05 16:07:29;;;;;;;24.70;11.70;;;;;;;1.27;100.00;98265.73;104962;1304;22479;-29
2021/12/05 16:10:08;;;;;;;24.70;10.10;;;;;;;1.26;100.00;98265.64;104654;1304;22532;-29
2021/12/05 16:12:37;;;;;;;21.70;10.90;;;;;;;1.28;100.00;98264.73;104583;1304;22963;-26
2021/12/05 16:15:04;;;;;;;26.20;14.80;;;;;;;1.29;100.00;98269.93;104593;1303;24343;-29
2021/12/05 16:17:31;;;;;;;29.70;13.60;;;;;;;1.40;100.00;98275.08;104702;1304;22438;-29
2021/12/05 16:20:01;;;;;;;38.00;14.60;;;;;;;1.46;100.00;98277.55;104672;1304;23868;-25
2021/12/05 16:22:26;;;;;;;20.20;8.30;;;;;;;1.46;100.00;98280.04;104684;1307;23181;-29